createdAt,value
2023-01-29T00:00:13.165Z,96303.3
2023-01-29T00:01:16.100Z,96301.9
2023-01-29T00:02:18.669Z,96300.5
2023-01-29T00:03:21.355Z,96300.7
2023-01-29T00:04:23.423Z,96301.1
2023-01-29T00:06:30.643Z,96303.7
2023-01-29T00:07:32.581Z,96304.5
2023-01-29T00:08:34.803Z,96304.9
2023-01-29T00:09:37.054Z,96303.7
2023-01-29T00:10:39.267Z,96302.4
2023-01-29T00:11:41.871Z,96303.5
2023-01-29T00:12:44.392Z,96302.6
2023-01-29T00:13:46.946Z,96302.8
2023-01-29T00:14:49.503Z,96298.5
2023-01-29T00:15:51.995Z,96301.6
2023-01-29T00:16:54.422Z,96305.8
2023-01-29T00:17:56.762Z,96302.1
2023-01-29T00:18:59.250Z,96299.8
2023-01-29T00:20:01.729Z,96302
2023-01-29T00:21:04.024Z,96302
2023-01-29T00:22:06.261Z,96306.6
2023-01-29T00:23:08.471Z,96301.9
2023-01-29T00:24:11.322Z,96307.4
2023-01-29T00:25:13.405Z,96310.5
2023-01-29T00:26:15.935Z,96311.3
2023-01-29T00:27:18.519Z,96308.7
2023-01-29T00:28:21.058Z,96317.4
2023-01-29T00:29:23.310Z,96315.8
2023-01-29T00:30:25.529Z,96315
2023-01-29T00:31:28.674Z,96320.4
2023-01-29T00:32:31.400Z,96317.5
2023-01-29T00:33:33.921Z,96319.4
2023-01-29T00:34:36.436Z,96326.3
2023-01-29T00:35:38.659Z,96322.5
2023-01-29T00:36:41.153Z,96321.7
2023-01-29T00:37:43.378Z,96323.2
2023-01-29T00:38:45.916Z,96320.4
2023-01-29T00:39:49.919Z,96319
2023-01-29T00:40:52.427Z,96319.9
2023-01-29T00:41:54.990Z,96317.9
2023-01-29T00:42:57.620Z,96320.5
2023-01-29T00:44:00.139Z,96312.6
2023-01-29T00:45:02.371Z,96318
2023-01-29T00:46:04.616Z,96317.9
2023-01-29T00:47:07.125Z,96317
2023-01-29T00:48:09.131Z,96318
2023-01-29T00:49:11.364Z,96317.1
2023-01-29T00:50:13.757Z,96320.8
2023-01-29T00:51:16.718Z,96317.7
2023-01-29T00:52:19.233Z,96314.4
2023-01-29T00:53:21.465Z,96314.5
2023-01-29T00:54:23.693Z,96316
2023-01-29T00:55:26.198Z,96316.9
2023-01-29T00:56:28.697Z,96315.1
2023-01-29T00:57:30.696Z,96316
2023-01-29T00:58:33.281Z,96317.9
2023-01-29T00:59:35.822Z,96318.9
2023-01-29T01:00:38.336Z,96321.3
2023-01-29T01:01:40.836Z,96318.5
2023-01-29T01:02:43.104Z,96319
2023-01-29T01:03:44.795Z,96318.9
2023-01-29T01:04:47.325Z,96315.9
2023-01-29T01:05:49.921Z,96317.3
2023-01-29T01:06:52.219Z,96315.8
2023-01-29T01:07:54.717Z,96314.4
2023-01-29T01:08:56.372Z,96315.8
2023-01-29T01:09:58.892Z,96320.9
2023-01-29T01:11:01.172Z,96312.8
2023-01-29T01:12:03.743Z,96312.4
2023-01-29T01:13:06.252Z,96314.7
2023-01-29T01:14:08.855Z,96318.6
2023-01-29T01:15:11.377Z,96316.4
2023-01-29T01:16:13.851Z,96321.5
2023-01-29T01:17:16.476Z,96319.8
2023-01-29T01:18:18.987Z,96317.9
2023-01-29T01:19:21.500Z,96320.1
2023-01-29T01:20:24.054Z,96320.5
2023-01-29T01:21:26.392Z,96322.8
2023-01-29T01:22:28.612Z,96326.7
2023-01-29T01:23:30.836Z,96323.4
2023-01-29T01:24:33.099Z,96326.3
2023-01-29T01:25:35.588Z,96321
2023-01-29T01:26:37.823Z,96323.3
2023-01-29T01:27:40.325Z,96325
2023-01-29T01:28:42.856Z,96319.2
2023-01-29T01:29:45.152Z,96324.7
2023-01-29T01:30:47.567Z,96323.6
2023-01-29T01:31:50.282Z,96322
2023-01-29T01:32:52.698Z,96326.1
2023-01-29T01:33:55.032Z,96324.1
2023-01-29T01:34:57.531Z,96325.2
2023-01-29T01:36:00.037Z,96324.6
2023-01-29T01:37:02.345Z,96324.7
2023-01-29T01:38:04.587Z,96326.6
2023-01-29T01:39:07.100Z,96331.1
2023-01-29T01:40:09.581Z,96330.1
2023-01-29T01:41:12.063Z,96330.8
2023-01-29T01:42:14.590Z,96336.4
2023-01-29T01:43:16.680Z,96333.5
2023-01-29T01:44:19.221Z,96331.2
2023-01-29T01:45:21.790Z,96332.6
2023-01-29T01:46:24.312Z,96329.3
2023-01-29T01:47:26.805Z,96332
2023-01-29T01:48:29.004Z,96328.4
2023-01-29T01:49:31.531Z,96321.9
2023-01-29T01:50:33.799Z,96323.6
2023-01-29T01:51:36.346Z,96322
2023-01-29T01:52:38.590Z,96322.9
2023-01-29T01:53:41.103Z,96321.4
2023-01-29T01:54:43.654Z,96321.6
2023-01-29T01:55:46.213Z,96323.4
2023-01-29T01:56:48.438Z,96325.3
2023-01-29T01:57:50.084Z,96327.6
2023-01-29T01:58:52.318Z,96326.9
2023-01-29T01:59:54.540Z,96328.8
2023-01-29T02:00:57.045Z,96322.3
2023-01-29T02:01:59.834Z,96321.2
2023-01-29T02:03:02.248Z,96325.3
2023-01-29T02:04:04.750Z,96321
2023-01-29T02:05:07.276Z,96324
2023-01-29T02:06:09.758Z,96321.1
2023-01-29T02:07:12.266Z,96323.9
2023-01-29T02:08:14.249Z,96324.3
2023-01-29T02:09:16.493Z,96322.7
2023-01-29T02:10:19.700Z,96331.8
2023-01-29T02:11:22.318Z,96334.5
2023-01-29T02:12:24.622Z,96331.3
2023-01-29T02:13:27.126Z,96330.7
2023-01-29T02:14:29.347Z,96330
2023-01-29T02:15:31.846Z,96325.8
2023-01-29T02:16:34.419Z,96328.5
2023-01-29T02:17:37.251Z,96328.2
2023-01-29T02:18:39.578Z,96332.6
2023-01-29T02:19:42.077Z,96332.5
2023-01-29T02:20:44.632Z,96335.9
2023-01-29T02:21:47.130Z,96339.6
2023-01-29T02:22:49.645Z,96340.8
2023-01-29T02:23:52.546Z,96341.3
2023-01-29T02:24:54.924Z,96347.6
2023-01-29T02:25:57.449Z,96342.8
2023-01-29T02:26:59.952Z,96340.7
2023-01-29T02:28:02.453Z,96337
2023-01-29T02:29:04.940Z,96336.2
2023-01-29T02:30:07.491Z,96333.3
2023-01-29T02:31:10.418Z,96329
2023-01-29T02:32:13.086Z,96324.3
2023-01-29T02:33:15.048Z,96326.4
2023-01-29T02:34:17.543Z,96327.5
2023-01-29T02:35:20.056Z,96324.8
2023-01-29T02:36:22.323Z,96325
2023-01-29T02:37:24.831Z,96326.5
2023-01-29T02:38:27.365Z,96323
2023-01-29T02:39:29.784Z,96323.7
2023-01-29T02:40:32.447Z,96321.8
2023-01-29T02:41:34.952Z,96318.9
2023-01-29T02:42:37.501Z,96321.5
2023-01-29T02:43:39.705Z,96321.3
2023-01-29T02:44:41.945Z,96317.4
2023-01-29T02:45:44.797Z,96313.8
2023-01-29T02:46:47.339Z,96316.2
2023-01-29T02:47:49.922Z,96315.7
2023-01-29T02:48:52.458Z,96314.7
2023-01-29T02:49:54.403Z,96311.8
2023-01-29T02:50:56.888Z,96306.5
2023-01-29T02:51:59.128Z,96306.9
2023-01-29T02:53:01.328Z,96304
2023-01-29T02:54:03.863Z,96306.5
2023-01-29T02:55:06.371Z,96309.7
2023-01-29T02:56:08.850Z,96311.5
2023-01-29T02:57:11.355Z,96304
2023-01-29T02:58:13.850Z,96303.2
2023-01-29T02:59:16.342Z,96302.8
2023-01-29T03:00:19.917Z,96302
2023-01-29T03:01:22.685Z,96302.3
2023-01-29T03:02:25.506Z,96305.5
2023-01-29T03:03:27.939Z,96304.4
2023-01-29T03:04:30.457Z,96302.9
2023-01-29T03:05:32.713Z,96305.1
2023-01-29T03:06:34.967Z,96304.3
2023-01-29T03:07:37.466Z,96304.8
2023-01-29T03:08:39.697Z,96300.3
2023-01-29T03:09:42.240Z,96303.5
2023-01-29T03:10:44.737Z,96302.9
2023-01-29T03:11:47.225Z,96302.6
2023-01-29T03:12:49.501Z,96300.7
2023-01-29T03:13:52.014Z,96300.7
2023-01-29T03:14:54.522Z,96306.4
2023-01-29T03:15:56.771Z,96306.1
2023-01-29T03:16:59.271Z,96305.2
2023-01-29T03:18:01.804Z,96306.3
2023-01-29T03:19:04.146Z,96301.7
2023-01-29T03:20:06.644Z,96301.8
2023-01-29T03:21:08.866Z,96304.4
2023-01-29T03:22:10.807Z,96309.1
2023-01-29T03:23:13.303Z,96307.1
2023-01-29T03:24:15.845Z,96307.7
2023-01-29T03:25:18.421Z,96309.3
2023-01-29T03:26:20.631Z,96310.2
2023-01-29T03:27:23.149Z,96313.3
2023-01-29T03:28:25.672Z,96312.7
2023-01-29T03:29:27.901Z,96315.2
2023-01-29T03:30:30.162Z,96318
2023-01-29T03:31:33.191Z,96314.3
2023-01-29T03:32:36.040Z,96309.4
2023-01-29T03:33:38.572Z,96313.4
2023-01-29T03:34:41.185Z,96324.8
2023-01-29T03:35:43.720Z,96321.1
2023-01-29T03:36:46.436Z,96319
2023-01-29T03:37:48.936Z,96320.6
2023-01-29T03:38:51.168Z,96320.3
2023-01-29T03:39:53.119Z,96317.8
2023-01-29T03:40:55.696Z,96315.8
2023-01-29T03:41:58.229Z,96315
2023-01-29T03:43:00.721Z,96319
2023-01-29T03:44:03.215Z,96312.7
2023-01-29T03:45:05.541Z,96317.3
2023-01-29T03:46:07.615Z,96313.9
2023-01-29T03:47:10.237Z,96311.1
2023-01-29T03:48:12.731Z,96311.5
2023-01-29T03:49:15.220Z,96308.8
2023-01-29T03:50:19.092Z,96309.9
2023-01-29T03:51:21.412Z,96303.8
2023-01-29T03:52:23.625Z,96303.4
2023-01-29T03:53:25.862Z,96305.1
2023-01-29T03:54:28.388Z,96302.8
2023-01-29T03:55:30.893Z,96298.3
2023-01-29T03:56:33.396Z,96297.4
2023-01-29T03:57:35.932Z,96296.6
2023-01-29T03:58:38.495Z,96296.6
2023-01-29T03:59:41.054Z,96289.3
2023-01-29T04:00:43.577Z,96288.7
2023-01-29T04:01:46.503Z,96286.2
2023-01-29T04:02:48.813Z,96282.8
2023-01-29T04:03:51.462Z,96282.6
2023-01-29T04:04:54.021Z,96281.3
2023-01-29T04:05:56.260Z,96277.8
2023-01-29T04:06:58.480Z,96273
2023-01-29T04:08:00.978Z,96278.3
2023-01-29T04:09:03.495Z,96271.8
2023-01-29T04:10:05.728Z,96272
2023-01-29T04:11:08.223Z,96272.5
2023-01-29T04:12:10.554Z,96270.2
2023-01-29T04:13:13.159Z,96274.1
2023-01-29T04:14:15.682Z,96273.7
2023-01-29T04:15:18.175Z,96274.7
2023-01-29T04:16:20.646Z,96280.4
2023-01-29T04:17:22.975Z,96276.8
2023-01-29T04:18:24.909Z,96278.8
2023-01-29T04:19:27.128Z,96274.8
2023-01-29T04:20:29.342Z,96277.5
2023-01-29T04:21:31.834Z,96279.7
2023-01-29T04:22:34.349Z,96278.6
2023-01-29T04:23:36.460Z,96277.3
2023-01-29T04:24:38.968Z,96284.3
2023-01-29T04:25:40.906Z,96282
2023-01-29T04:26:43.400Z,96283
2023-01-29T04:27:45.623Z,96286.2
2023-01-29T04:28:48.109Z,96283.7
2023-01-29T04:29:50.602Z,96281.6
2023-01-29T04:30:53.672Z,96285.6
2023-01-29T04:31:56.668Z,96282.4
2023-01-29T04:32:59.265Z,96280.7
2023-01-29T04:34:01.807Z,96282.8
2023-01-29T04:35:03.753Z,96282.5
2023-01-29T04:36:05.994Z,96281.5
2023-01-29T04:37:08.193Z,96283.3
2023-01-29T04:38:10.427Z,96283.8
2023-01-29T04:39:13.295Z,96283
2023-01-29T04:40:17.248Z,96289.9
2023-01-29T04:41:20.325Z,96287.2
2023-01-29T04:42:22.840Z,96290.2
2023-01-29T04:43:25.364Z,96298.1
2023-01-29T04:44:27.886Z,96291.3
2023-01-29T04:45:30.367Z,96296
2023-01-29T04:46:32.597Z,96300.2
2023-01-29T04:47:35.323Z,96293.1
2023-01-29T04:48:37.958Z,96299.2
2023-01-29T04:49:40.463Z,96297.2
2023-01-29T04:50:42.721Z,96290.8
2023-01-29T04:51:45.250Z,96295.2
2023-01-29T04:52:47.732Z,96294.5
2023-01-29T04:53:50.224Z,96291
2023-01-29T04:54:52.749Z,96290.1
2023-01-29T04:55:54.983Z,96289.5
2023-01-29T04:56:56.916Z,96286.5
2023-01-29T04:57:58.568Z,96285.9
2023-01-29T04:59:00.853Z,96282.5
2023-01-29T05:00:03.358Z,96279.9
2023-01-29T05:01:05.607Z,96284
2023-01-29T05:02:07.821Z,96282
2023-01-29T05:03:09.961Z,96282.2
2023-01-29T05:04:12.487Z,96273.8
2023-01-29T05:05:15.026Z,96273.6
2023-01-29T05:06:17.517Z,96277.2
2023-01-29T05:07:20.001Z,96280
2023-01-29T05:08:21.970Z,96281.4
2023-01-29T05:09:24.186Z,96283.7
2023-01-29T05:10:26.670Z,96289.4
2023-01-29T05:11:29.181Z,96289.3
2023-01-29T05:12:31.129Z,96289.9
2023-01-29T05:13:33.656Z,96301.5
2023-01-29T05:14:36.134Z,96295.5
2023-01-29T05:15:37.837Z,96300.4
2023-01-29T05:16:40.045Z,96296.2
2023-01-29T05:17:42.258Z,96296
2023-01-29T05:18:44.477Z,96295.8
2023-01-29T05:19:46.969Z,96299
2023-01-29T05:20:49.539Z,96295.5
2023-01-29T05:21:52.075Z,96302.3
2023-01-29T05:22:54.572Z,96298.5
2023-01-29T05:23:57.349Z,96299.1
2023-01-29T05:24:59.998Z,96305.5
2023-01-29T05:26:02.305Z,96307.6
2023-01-29T05:27:04.596Z,96310
2023-01-29T05:28:06.627Z,96311.4
2023-01-29T05:29:09.144Z,96316.6
2023-01-29T05:30:11.105Z,96316.8
2023-01-29T05:31:14.124Z,96318.9
2023-01-29T05:32:16.996Z,96326
2023-01-29T05:33:19.285Z,96326.5
2023-01-29T05:34:21.504Z,96327.5
2023-01-29T05:35:24.013Z,96323.7
2023-01-29T05:36:26.504Z,96325.3
2023-01-29T05:37:29.049Z,96326.9
2023-01-29T05:38:31.276Z,96328.6
2023-01-29T05:39:33.516Z,96332.1
2023-01-29T05:40:35.715Z,96329.8
2023-01-29T05:41:38.205Z,96330.2
2023-01-29T05:42:40.421Z,96327
2023-01-29T05:43:42.937Z,96330.2
2023-01-29T05:44:45.695Z,96328
2023-01-29T05:45:48.242Z,96329.1
2023-01-29T05:46:50.957Z,96334.5
2023-01-29T05:47:53.582Z,96333.2
2023-01-29T05:48:55.785Z,96329.5
2023-01-29T05:49:57.733Z,96332.1
2023-01-29T05:51:00.247Z,96325.3
2023-01-29T05:52:02.462Z,96327.1
2023-01-29T05:53:04.675Z,96334.9
2023-01-29T05:54:07.195Z,96341.3
2023-01-29T05:55:09.159Z,96338.3
2023-01-29T05:56:11.667Z,96334.5
2023-01-29T05:57:14.172Z,96333.5
2023-01-29T05:58:16.723Z,96329.4
2023-01-29T05:59:18.949Z,96328.1
2023-01-29T06:00:21.453Z,96327
2023-01-29T06:01:23.974Z,96326.8
2023-01-29T06:02:26.511Z,96330
2023-01-29T06:03:28.725Z,96329.4
2023-01-29T06:04:31.232Z,96333.9
2023-01-29T06:05:33.457Z,96333
2023-01-29T06:06:35.984Z,96332.1
2023-01-29T06:07:38.195Z,96332.6
2023-01-29T06:08:40.460Z,96330.3
2023-01-29T06:09:42.716Z,96332.8
2023-01-29T06:10:44.958Z,96333.5
2023-01-29T06:11:47.240Z,96329.7
2023-01-29T06:12:49.457Z,96329.8
2023-01-29T06:13:51.992Z,96322.9
2023-01-29T06:14:54.233Z,96326.5
2023-01-29T06:15:57.082Z,96327.5
2023-01-29T06:16:59.399Z,96323.6
2023-01-29T06:18:01.930Z,96324
2023-01-29T06:19:04.128Z,96323.2
2023-01-29T06:20:06.644Z,96322.7
2023-01-29T06:21:08.851Z,96321.2
2023-01-29T06:22:11.364Z,96320.4
2023-01-29T06:23:13.844Z,96325
2023-01-29T06:24:16.350Z,96322.8
2023-01-29T06:25:18.674Z,96327.4
2023-01-29T06:26:20.908Z,96324.8
2023-01-29T06:27:23.116Z,96322.1
2023-01-29T06:28:25.336Z,96324
2023-01-29T06:29:27.854Z,96323.4
2023-01-29T06:30:30.135Z,96329.5
2023-01-29T06:32:38.056Z,96325.8
2023-01-29T06:33:40.446Z,96327.4
2023-01-29T06:34:42.938Z,96323.9
2023-01-29T06:35:44.926Z,96325.1
2023-01-29T06:36:46.862Z,96323.8
2023-01-29T06:37:49.087Z,96332.1
2023-01-29T06:38:51.610Z,96327.2
2023-01-29T06:39:54.195Z,96333
2023-01-29T06:40:56.134Z,96337.3
2023-01-29T06:41:58.686Z,96337.3
2023-01-29T06:43:01.199Z,96335.7
2023-01-29T06:44:03.473Z,96334.3
2023-01-29T06:45:06.003Z,96334.8
2023-01-29T06:46:08.604Z,96336
2023-01-29T06:47:10.563Z,96335.9
2023-01-29T06:48:13.063Z,96338.2
2023-01-29T06:49:15.306Z,96342.2
2023-01-29T06:50:19.640Z,96339.3
2023-01-29T06:51:22.697Z,96340
2023-01-29T06:52:25.122Z,96339.3
2023-01-29T06:53:27.382Z,96337.6
2023-01-29T06:54:29.677Z,96337.4
2023-01-29T06:55:32.209Z,96340.4
2023-01-29T06:56:34.746Z,96340.8
2023-01-29T06:57:37.020Z,96341
2023-01-29T06:58:39.291Z,96338.5
2023-01-29T06:59:41.815Z,96338.1
2023-01-29T07:00:44.449Z,96337.3
2023-01-29T07:01:48.001Z,96337.3
2023-01-29T07:02:50.738Z,96333.5
2023-01-29T07:03:53.309Z,96335
2023-01-29T07:04:55.840Z,96330.6
2023-01-29T07:05:58.398Z,96337.6
2023-01-29T07:07:01.026Z,96340
2023-01-29T07:08:03.572Z,96340.5
2023-01-29T07:09:06.102Z,96341.1
2023-01-29T07:10:08.658Z,96339.4
2023-01-29T07:11:11.169Z,96343
2023-01-29T07:12:13.434Z,96335.1
2023-01-29T07:13:15.971Z,96330.4
2023-01-29T07:14:18.526Z,96329.5
2023-01-29T07:15:21.076Z,96326.9
2023-01-29T07:16:23.553Z,96328.8
2023-01-29T07:17:26.115Z,96331.4
2023-01-29T07:18:28.627Z,96328.2
2023-01-29T07:19:31.159Z,96328.5
2023-01-29T07:20:33.692Z,96329.5
2023-01-29T07:21:36.222Z,96324.9
2023-01-29T07:22:38.779Z,96325.1
2023-01-29T07:23:41.314Z,96318
2023-01-29T07:24:43.325Z,96307.1
2023-01-29T07:25:45.577Z,96311.7
2023-01-29T07:26:48.178Z,96309.9
2023-01-29T07:27:50.720Z,96309.1
2023-01-29T07:28:53.267Z,96312.3
2023-01-29T07:29:55.526Z,96313.3
2023-01-29T07:30:58.269Z,96313.8
2023-01-29T07:32:01.275Z,96315
2023-01-29T07:34:09.902Z,96308.6
2023-01-29T07:35:12.189Z,96313.1
2023-01-29T07:36:14.783Z,96309.5
2023-01-29T07:37:17.332Z,96313.8
2023-01-29T07:38:19.891Z,96309
2023-01-29T07:39:22.410Z,96311.7
2023-01-29T07:40:24.663Z,96310.9
2023-01-29T07:41:27.172Z,96308.6
2023-01-29T07:42:29.694Z,96308.1
2023-01-29T07:43:31.922Z,96307.9
2023-01-29T07:44:34.431Z,96306.3
2023-01-29T07:45:37.375Z,96301.7
2023-01-29T07:46:39.975Z,96303.3
2023-01-29T07:47:42.534Z,96303.6
2023-01-29T07:48:44.530Z,96300.2
2023-01-29T07:49:47.053Z,96303
2023-01-29T07:50:49.563Z,96305.6
2023-01-29T07:51:51.813Z,96303.2
2023-01-29T07:52:54.048Z,96300.4
2023-01-29T07:53:56.552Z,96301.6
2023-01-29T07:54:59.089Z,96301.2
2023-01-29T07:56:01.669Z,96306
2023-01-29T07:57:03.940Z,96306.5
2023-01-29T07:58:06.454Z,96307.6
2023-01-29T07:59:08.987Z,96308.3
2023-01-29T08:00:11.533Z,96302.6
2023-01-29T08:01:14.217Z,96301.8
2023-01-29T08:02:17.217Z,96295.2
2023-01-29T08:03:19.621Z,96301.4
2023-01-29T08:04:22.220Z,96304
2023-01-29T08:05:24.760Z,96299
2023-01-29T08:06:27.005Z,96300.9
2023-01-29T08:07:29.247Z,96305.1
2023-01-29T08:08:31.782Z,96300.3
2023-01-29T08:09:34.039Z,96301.1
2023-01-29T08:10:36.694Z,96294.8
2023-01-29T08:11:38.988Z,96295.9
2023-01-29T08:12:41.507Z,96288.8
2023-01-29T08:13:44.053Z,96294.8
2023-01-29T08:14:46.577Z,96291.4
2023-01-29T08:15:49.124Z,96293.2
2023-01-29T08:16:51.893Z,96297.9
2023-01-29T08:18:59.190Z,96296.8
2023-01-29T08:20:01.437Z,96294.7
2023-01-29T08:21:04.098Z,96292.9
2023-01-29T08:22:06.630Z,96296.7
2023-01-29T08:23:08.898Z,96299.5
2023-01-29T08:24:11.403Z,96294.7
2023-01-29T08:25:13.701Z,96301.4
2023-01-29T08:26:16.286Z,96301.4
2023-01-29T08:27:18.810Z,96299.6
2023-01-29T08:28:21.319Z,96300.6
2023-01-29T08:29:23.567Z,96308
2023-01-29T08:30:26.134Z,96312.1
2023-01-29T08:31:28.528Z,96314.4
2023-01-29T08:32:31.120Z,96310
2023-01-29T08:34:38.133Z,96310.6
2023-01-29T08:35:40.364Z,96309.1
2023-01-29T08:36:42.609Z,96314.2
2023-01-29T08:37:45.149Z,96312.5
2023-01-29T08:38:47.402Z,96316.1
2023-01-29T08:39:49.940Z,96313.7
2023-01-29T08:40:52.145Z,96314.1
2023-01-29T08:41:54.631Z,96320.8
2023-01-29T08:42:58.854Z,96320.4
2023-01-29T08:44:04.160Z,96315.9
2023-01-29T08:45:06.371Z,96322.8
2023-01-29T08:46:09.260Z,96327.3
2023-01-29T08:47:11.342Z,96328.3
2023-01-29T08:48:13.859Z,96333.8
2023-01-29T08:49:16.364Z,96336.8
2023-01-29T08:50:20.452Z,96338.8
2023-01-29T08:51:22.746Z,96343.1
2023-01-29T08:52:24.947Z,96340
2023-01-29T08:53:27.737Z,96340.3
2023-01-29T08:54:30.534Z,96341.9
2023-01-29T08:55:33.053Z,96339.2
2023-01-29T08:56:35.283Z,96340.7
2023-01-29T08:57:37.760Z,96337.5
2023-01-29T08:58:39.996Z,96342.5
2023-01-29T08:59:42.494Z,96344.8
2023-01-29T09:00:44.746Z,96346.5
2023-01-29T09:01:47.256Z,96345
2023-01-29T09:02:49.691Z,96348.9
2023-01-29T09:03:52.196Z,96348.5
2023-01-29T09:04:54.442Z,96348.2
2023-01-29T09:05:56.386Z,96343.7
2023-01-29T09:06:58.885Z,96347.2
2023-01-29T09:08:01.154Z,96347.3
2023-01-29T09:09:03.389Z,96351.3
2023-01-29T09:10:05.900Z,96348.8
2023-01-29T09:11:08.130Z,96349
2023-01-29T09:12:10.623Z,96351.2
2023-01-29T09:13:13.117Z,96347.1
2023-01-29T09:14:15.626Z,96355.4
2023-01-29T09:15:20.069Z,96358.9
2023-01-29T09:16:22.516Z,96362.7
2023-01-29T09:17:25.095Z,96364.5
2023-01-29T09:18:27.603Z,96370.3
2023-01-29T09:19:29.843Z,96366.3
2023-01-29T09:20:32.350Z,96367.6
2023-01-29T09:21:34.580Z,96373.6
2023-01-29T09:22:37.104Z,96368.8
2023-01-29T09:23:39.611Z,96367.1
2023-01-29T09:24:42.136Z,96376.5
2023-01-29T09:25:44.675Z,96368.8
2023-01-29T09:26:47.294Z,96367.8
2023-01-29T09:27:49.851Z,96372.8
2023-01-29T09:28:52.071Z,96369.6
2023-01-29T09:29:54.289Z,96373.7
2023-01-29T09:30:56.999Z,96374.3
2023-01-29T09:31:59.717Z,96374.1
2023-01-29T09:33:02.329Z,96376.3
2023-01-29T09:34:04.836Z,96377.8
2023-01-29T09:35:07.065Z,96372.5
2023-01-29T09:36:09.563Z,96374.4
2023-01-29T09:37:12.060Z,96377.9
2023-01-29T09:38:14.571Z,96379
2023-01-29T09:39:16.842Z,96380.1
2023-01-29T09:40:19.356Z,96383.7
2023-01-29T09:41:21.600Z,96384.2
2023-01-29T09:42:24.088Z,96386
2023-01-29T09:43:26.614Z,96382.8
2023-01-29T09:44:29.124Z,96382
2023-01-29T09:45:31.667Z,96387.8
2023-01-29T09:46:33.878Z,96391.2
2023-01-29T09:47:36.405Z,96392.3
2023-01-29T09:48:38.904Z,96393.2
2023-01-29T09:49:41.137Z,96396.2
2023-01-29T09:50:43.351Z,96395.4
2023-01-29T09:51:45.274Z,96397.6
2023-01-29T09:52:47.491Z,96396.6
2023-01-29T09:53:49.756Z,96397.5
2023-01-29T09:54:52.003Z,96398.2
2023-01-29T09:55:54.523Z,96393.4
2023-01-29T09:56:56.750Z,96394.3
2023-01-29T09:57:59.329Z,96390.2
2023-01-29T09:59:03.052Z,96390.5
2023-01-29T10:00:05.596Z,96384.8
2023-01-29T10:01:08.620Z,96383.1
2023-01-29T10:02:11.887Z,96383.4
2023-01-29T10:03:14.669Z,96384.5
2023-01-29T10:04:17.206Z,96382.2
2023-01-29T10:05:20.940Z,96383.9
2023-01-29T10:06:23.451Z,96376
2023-01-29T10:07:25.700Z,96371.8
2023-01-29T10:08:28.242Z,96376.5
2023-01-29T10:09:30.542Z,96378.4
2023-01-29T10:10:33.055Z,96375.6
2023-01-29T10:11:35.363Z,96378.7
2023-01-29T10:12:37.867Z,96383.8
2023-01-29T10:13:40.095Z,96381
2023-01-29T10:14:42.612Z,96380.9
2023-01-29T10:15:44.563Z,96378.6
2023-01-29T10:16:47.374Z,96384.1
2023-01-29T10:17:51.765Z,96374.2
2023-01-29T10:18:54.278Z,96379.8
2023-01-29T10:19:56.232Z,96371.8
2023-01-29T10:20:58.756Z,96366
2023-01-29T10:22:00.712Z,96368.6
2023-01-29T10:23:02.945Z,96368.8
2023-01-29T10:24:05.206Z,96369.9
2023-01-29T10:25:07.577Z,96372.3
2023-01-29T10:26:10.226Z,96372.9
2023-01-29T10:27:12.544Z,96370.4
2023-01-29T10:28:15.048Z,96371.1
2023-01-29T10:29:17.550Z,96369.7
2023-01-29T10:30:19.836Z,96370.8
2023-01-29T10:31:22.719Z,96371.3
2023-01-29T10:32:25.252Z,96372.5
2023-01-29T10:33:27.472Z,96368.7
2023-01-29T10:34:31.654Z,96370
2023-01-29T10:35:34.144Z,96366.2
2023-01-29T10:36:36.425Z,96363
2023-01-29T10:37:38.918Z,96369.9
2023-01-29T10:38:41.207Z,96363.8
2023-01-29T10:39:43.436Z,96368.1
2023-01-29T10:40:45.665Z,96360.9
2023-01-29T10:41:47.884Z,96360.4
2023-01-29T10:42:50.438Z,96364.4
2023-01-29T10:43:52.389Z,96360.3
2023-01-29T10:44:54.359Z,96362.8
2023-01-29T10:45:56.846Z,96360.4
2023-01-29T10:46:59.567Z,96361.3
2023-01-29T10:48:02.221Z,96361.2
2023-01-29T10:49:04.740Z,96359.4
2023-01-29T10:50:07.267Z,96362.3
2023-01-29T10:51:09.205Z,96359.1
2023-01-29T10:52:11.733Z,96359.7
2023-01-29T10:53:14.251Z,96356.9
2023-01-29T10:54:16.494Z,96361.7
2023-01-29T10:55:19.986Z,96361.8
2023-01-29T10:57:27.470Z,96361.8
2023-01-29T10:58:29.982Z,96361.6
2023-01-29T10:59:32.504Z,96365.9
2023-01-29T11:00:35.261Z,96362.5
2023-01-29T11:01:38.075Z,96364.9
2023-01-29T11:02:40.950Z,96360.5
2023-01-29T11:03:43.598Z,96356.6
2023-01-29T11:04:46.262Z,96351.7
2023-01-29T11:05:48.455Z,96351
2023-01-29T11:06:50.690Z,96354.4
2023-01-29T11:07:53.267Z,96352.8
2023-01-29T11:08:55.522Z,96346.6
2023-01-29T11:09:57.818Z,96349.3
2023-01-29T11:11:00.048Z,96351.2
2023-01-29T11:12:02.635Z,96345.6
2023-01-29T11:13:05.167Z,96348.1
2023-01-29T11:14:07.546Z,96349.8
2023-01-29T11:15:09.781Z,96351
2023-01-29T11:16:12.032Z,96346.8
2023-01-29T11:17:14.458Z,96347.7
2023-01-29T11:18:17.257Z,96345.1
2023-01-29T11:19:20.539Z,96343.5
2023-01-29T11:20:22.787Z,96343
2023-01-29T11:21:25.055Z,96338.6
2023-01-29T11:22:27.370Z,96342.1
2023-01-29T11:23:29.776Z,96339.3
2023-01-29T11:24:32.005Z,96343.8
2023-01-29T11:25:34.340Z,96340.2
2023-01-29T11:26:36.205Z,96342.7
2023-01-29T11:27:38.808Z,96337.2
2023-01-29T11:28:41.323Z,96338.9
2023-01-29T11:29:43.844Z,96338.8
2023-01-29T11:30:46.135Z,96334.9
2023-01-29T11:31:48.927Z,96328.4
2023-01-29T11:32:51.503Z,96334.3
2023-01-29T11:33:53.505Z,96332.6
2023-01-29T11:34:56.029Z,96327.2
2023-01-29T11:35:58.560Z,96329.9
2023-01-29T11:37:00.307Z,96328.8
2023-01-29T11:38:02.858Z,96325.7
2023-01-29T11:39:05.084Z,96324.9
2023-01-29T11:40:07.602Z,96327.6
2023-01-29T11:41:09.826Z,96323.1
2023-01-29T11:42:15.114Z,96327
2023-01-29T11:43:17.655Z,96329.8
2023-01-29T11:44:20.159Z,96324.5
2023-01-29T11:45:22.718Z,96327.5
2023-01-29T11:46:24.829Z,96325.5
2023-01-29T11:47:27.449Z,96320.5
2023-01-29T11:48:29.674Z,96323
2023-01-29T11:49:32.213Z,96316.1
2023-01-29T11:50:34.413Z,96313.2
2023-01-29T11:51:36.658Z,96312
2023-01-29T11:52:38.662Z,96302.4
2023-01-29T11:53:40.951Z,96304.6
2023-01-29T11:54:43.193Z,96297
2023-01-29T11:56:50.691Z,96287.5
2023-01-29T11:57:52.715Z,96277.6
2023-01-29T11:58:54.993Z,96263.8
2023-01-29T11:59:57.333Z,96269.3
2023-01-29T12:00:59.586Z,96258
2023-01-29T12:02:01.849Z,96259.2
2023-01-29T12:03:04.057Z,96246.6
2023-01-29T12:04:06.271Z,96243.7
2023-01-29T12:05:08.647Z,96243.1
2023-01-29T12:06:11.343Z,96237.8
2023-01-29T12:07:14.026Z,96237.1
2023-01-29T12:08:16.254Z,96240.7
2023-01-29T12:09:18.218Z,96242.4
2023-01-29T12:10:20.735Z,96240
2023-01-29T12:11:22.952Z,96238.3
2023-01-29T12:12:25.168Z,96234.4
2023-01-29T12:13:27.443Z,96235.5
2023-01-29T12:14:29.647Z,96238.7
2023-01-29T12:15:32.201Z,96239.5
2023-01-29T12:16:34.738Z,96239.5
2023-01-29T12:17:36.825Z,96247.6
2023-01-29T12:18:38.766Z,96244.3
2023-01-29T12:19:41.453Z,96243.6
2023-01-29T12:20:43.976Z,96246.9
2023-01-29T12:21:45.924Z,96246.9
2023-01-29T12:22:48.431Z,96250.4
2023-01-29T12:23:50.680Z,96248.8
2023-01-29T12:24:52.895Z,96252.5
2023-01-29T12:25:55.094Z,96249.4
2023-01-29T12:26:57.589Z,96245.7
2023-01-29T12:27:59.822Z,96249.4
2023-01-29T12:29:02.047Z,96254.4
2023-01-29T12:30:04.286Z,96253.2
2023-01-29T12:31:06.994Z,96256.7
2023-01-29T12:32:09.259Z,96262.4
2023-01-29T12:33:11.518Z,96265.4
2023-01-29T12:34:13.767Z,96263.5
2023-01-29T12:35:16.281Z,96266
2023-01-29T12:36:18.233Z,96273.2
2023-01-29T12:37:20.446Z,96268.8
2023-01-29T12:38:23.020Z,96265.6
2023-01-29T12:39:25.520Z,96265.3
2023-01-29T12:40:28.026Z,96264
2023-01-29T12:41:30.537Z,96257.6
2023-01-29T12:42:32.745Z,96249.3
2023-01-29T12:43:35.274Z,96248
2023-01-29T12:44:37.766Z,96242.4
2023-01-29T12:45:40.303Z,96242.1
2023-01-29T12:46:42.652Z,96244.8
2023-01-29T12:47:44.680Z,96248.9
2023-01-29T12:48:46.882Z,96247.3